sensor_id;sensor_type;location;lat;lon;timestamp;P1;durP1;ratioP1;P2;durP2;ratioP2
58553;SDS011;48119;53.218;6.576;2022-09-09T00:04:41;8.93;;;5.72;;
58553;SDS011;48119;53.218;6.576;2022-09-09T00:07:18;8.30;;;5.72;;
58553;SDS011;48119;53.218;6.576;2022-09-09T00:15:28;9.90;;;5.35;;
58553;SDS011;48119;53.218;6.576;2022-09-09T00:18:17;8.43;;;5.45;;
58553;SDS011;48119;53.218;6.576;2022-09-09T00:20:57;8.63;;;5.70;;
58553;SDS011;48119;53.218;6.576;2022-09-09T00:23:42;9.20;;;6.07;;
58553;SDS011;48119;53.218;6.576;2022-09-09T00:26:14;9.00;;;6.13;;
58553;SDS011;48119;53.218;6.576;2022-09-09T00:31:54;7.28;;;5.30;;
58553;SDS011;48119;53.218;6.576;2022-09-09T00:34:25;7.65;;;5.20;;
58553;SDS011;48119;53.218;6.576;2022-09-09T00:36:52;10.00;;;5.95;;
58553;SDS011;48119;53.218;6.576;2022-09-09T00:39:27;10.50;;;5.72;;
58553;SDS011;48119;53.218;6.576;2022-09-09T00:44:46;6.95;;;5.30;;
58553;SDS011;48119;53.218;6.576;2022-09-09T00:47:53;7.82;;;5.03;;
58553;SDS011;48119;53.218;6.576;2022-09-09T00:53:22;6.63;;;4.80;;
58553;SDS011;48119;53.218;6.576;2022-09-09T00:58:34;7.30;;;5.20;;
58553;SDS011;48119;53.218;6.576;2022-09-09T01:01:03;9.70;;;5.32;;
58553;SDS011;48119;53.218;6.576;2022-09-09T01:03:59;9.43;;;4.78;;
58553;SDS011;48119;53.218;6.576;2022-09-09T01:06:34;11.25;;;5.15;;
58553;SDS011;48119;53.218;6.576;2022-09-09T01:09:24;8.40;;;4.65;;
58553;SDS011;48119;53.218;6.576;2022-09-09T01:12:16;6.07;;;4.20;;
58553;SDS011;48119;53.218;6.576;2022-09-09T01:14:49;7.47;;;4.35;;
58553;SDS011;48119;53.218;6.576;2022-09-09T01:17:44;8.82;;;4.45;;
58553;SDS011;48119;53.218;6.576;2022-09-09T01:20:39;9.23;;;4.32;;
58553;SDS011;48119;53.218;6.576;2022-09-09T01:26:18;5.53;;;4.30;;
58553;SDS011;48119;53.218;6.576;2022-09-09T01:28:48;9.23;;;5.00;;
58553;SDS011;48119;53.218;6.576;2022-09-09T01:31:36;7.05;;;4.55;;
58553;SDS011;48119;53.218;6.576;2022-09-09T01:34:11;10.00;;;5.40;;
58553;SDS011;48119;53.218;6.576;2022-09-09T01:36:40;7.55;;;4.45;;
58553;SDS011;48119;53.218;6.576;2022-09-09T01:39:09;8.30;;;4.95;;
58553;SDS011;48119;53.218;6.576;2022-09-09T01:41:36;6.05;;;3.92;;
58553;SDS011;48119;53.218;6.576;2022-09-09T01:44:02;7.57;;;3.95;;
58553;SDS011;48119;53.218;6.576;2022-09-09T01:46:29;6.47;;;3.90;;
58553;SDS011;48119;53.218;6.576;2022-09-09T01:48:55;6.13;;;4.32;;
58553;SDS011;48119;53.218;6.576;2022-09-09T01:51:23;6.38;;;4.47;;
58553;SDS011;48119;53.218;6.576;2022-09-09T01:53:49;7.05;;;4.25;;
58553;SDS011;48119;53.218;6.576;2022-09-09T01:56:35;6.10;;;3.95;;
58553;SDS011;48119;53.218;6.576;2022-09-09T01:59:10;8.07;;;4.32;;
58553;SDS011;48119;53.218;6.576;2022-09-09T02:04:38;8.13;;;4.13;;
58553;SDS011;48119;53.218;6.576;2022-09-09T02:07:11;5.97;;;4.50;;
58553;SDS011;48119;53.218;6.576;2022-09-09T02:09:39;8.82;;;4.45;;
58553;SDS011;48119;53.218;6.576;2022-09-09T02:12:08;5.47;;;4.57;;
58553;SDS011;48119;53.218;6.576;2022-09-09T02:14:42;6.15;;;4.60;;
58553;SDS011;48119;53.218;6.576;2022-09-09T02:17:13;7.63;;;4.97;;
58553;SDS011;48119;53.218;6.576;2022-09-09T02:19:48;6.72;;;5.00;;
58553;SDS011;48119;53.218;6.576;2022-09-09T02:24:47;8.13;;;5.05;;
58553;SDS011;48119;53.218;6.576;2022-09-09T02:27:15;9.32;;;5.80;;
58553;SDS011;48119;53.218;6.576;2022-09-09T02:29:44;10.27;;;5.45;;
58553;SDS011;48119;53.218;6.576;2022-09-09T02:32:13;7.60;;;5.55;;
58553;SDS011;48119;53.218;6.576;2022-09-09T02:34:43;10.60;;;5.97;;
58553;SDS011;48119;53.218;6.576;2022-09-09T02:37:12;8.40;;;5.13;;
58553;SDS011;48119;53.218;6.576;2022-09-09T02:39:40;11.35;;;5.40;;
58553;SDS011;48119;53.218;6.576;2022-09-09T02:42:05;8.07;;;5.90;;
58553;SDS011;48119;53.218;6.576;2022-09-09T02:44:33;8.45;;;5.63;;
58553;SDS011;48119;53.218;6.576;2022-09-09T02:49:56;9.30;;;5.80;;
58553;SDS011;48119;53.218;6.576;2022-09-09T02:58:12;10.02;;;5.75;;
58553;SDS011;48119;53.218;6.576;2022-09-09T03:00:47;7.47;;;5.60;;
58553;SDS011;48119;53.218;6.576;2022-09-09T03:03:15;9.93;;;6.03;;
58553;SDS011;48119;53.218;6.576;2022-09-09T03:05:41;6.45;;;5.03;;
58553;SDS011;48119;53.218;6.576;2022-09-09T03:08:08;8.23;;;5.10;;
58553;SDS011;48119;53.218;6.576;2022-09-09T03:10:34;7.32;;;4.93;;
58553;SDS011;48119;53.218;6.576;2022-09-09T03:13:02;9.05;;;5.30;;
58553;SDS011;48119;53.218;6.576;2022-09-09T03:15:30;8.88;;;5.20;;
58553;SDS011;48119;53.218;6.576;2022-09-09T03:17:57;8.45;;;4.97;;
58553;SDS011;48119;53.218;6.576;2022-09-09T03:20:24;10.90;;;4.55;;
58553;SDS011;48119;53.218;6.576;2022-09-09T03:22:54;9.07;;;5.43;;
58553;SDS011;48119;53.218;6.576;2022-09-09T03:25:21;8.30;;;4.85;;
58553;SDS011;48119;53.218;6.576;2022-09-09T03:27:51;7.55;;;4.60;;
58553;SDS011;48119;53.218;6.576;2022-09-09T03:30:24;8.80;;;5.40;;
58553;SDS011;48119;53.218;6.576;2022-09-09T03:32:50;9.32;;;4.63;;
58553;SDS011;48119;53.218;6.576;2022-09-09T03:35:17;8.63;;;4.85;;
58553;SDS011;48119;53.218;6.576;2022-09-09T03:37:43;7.35;;;4.60;;
58553;SDS011;48119;53.218;6.576;2022-09-09T03:40:09;5.93;;;3.85;;
58553;SDS011;48119;53.218;6.576;2022-09-09T03:42:35;6.65;;;4.05;;
58553;SDS011;48119;53.218;6.576;2022-09-09T03:45:02;6.28;;;4.18;;
58553;SDS011;48119;53.218;6.576;2022-09-09T03:47:35;6.00;;;4.15;;
58553;SDS011;48119;53.218;6.576;2022-09-09T03:50:01;7.40;;;3.70;;
58553;SDS011;48119;53.218;6.576;2022-09-09T03:52:29;5.78;;;3.40;;
58553;SDS011;48119;53.218;6.576;2022-09-09T03:54:55;5.60;;;3.58;;
58553;SDS011;48119;53.218;6.576;2022-09-09T03:57:21;5.10;;;3.28;;
58553;SDS011;48119;53.218;6.576;2022-09-09T03:59:47;6.07;;;3.38;;
58553;SDS011;48119;53.218;6.576;2022-09-09T04:02:13;6.95;;;2.80;;
58553;SDS011;48119;53.218;6.576;2022-09-09T04:04:38;4.82;;;3.13;;
58553;SDS011;48119;53.218;6.576;2022-09-09T04:07:04;4.68;;;2.67;;
58553;SDS011;48119;53.218;6.576;2022-09-09T04:09:32;4.50;;;2.40;;
58553;SDS011;48119;53.218;6.576;2022-09-09T04:11:58;4.95;;;2.30;;
58553;SDS011;48119;53.218;6.576;2022-09-09T04:14:23;4.13;;;1.90;;
58553;SDS011;48119;53.218;6.576;2022-09-09T04:16:53;3.83;;;2.00;;
58553;SDS011;48119;53.218;6.576;2022-09-09T04:19:21;3.33;;;1.90;;
58553;SDS011;48119;53.218;6.576;2022-09-09T04:21:46;4.90;;;1.85;;
58553;SDS011;48119;53.218;6.576;2022-09-09T04:24:15;3.72;;;1.80;;
58553;SDS011;48119;53.218;6.576;2022-09-09T04:26:41;3.80;;;2.17;;
58553;SDS011;48119;53.218;6.576;2022-09-09T04:29:07;4.95;;;1.92;;
58553;SDS011;48119;53.218;6.576;2022-09-09T04:31:32;4.55;;;2.00;;
58553;SDS011;48119;53.218;6.576;2022-09-09T04:33:59;4.43;;;2.17;;
58553;SDS011;48119;53.218;6.576;2022-09-09T04:36:30;7.20;;;2.13;;
58553;SDS011;48119;53.218;6.576;2022-09-09T04:38:56;4.50;;;2.30;;
58553;SDS011;48119;53.218;6.576;2022-09-09T04:41:22;4.28;;;1.92;;
58553;SDS011;48119;53.218;6.576;2022-09-09T04:43:48;7.18;;;2.08;;
58553;SDS011;48119;53.218;6.576;2022-09-09T04:46:15;3.78;;;1.77;;
58553;SDS011;48119;53.218;6.576;2022-09-09T04:48:43;4.07;;;1.92;;
58553;SDS011;48119;53.218;6.576;2022-09-09T04:51:11;5.53;;;2.28;;
58553;SDS011;48119;53.218;6.576;2022-09-09T04:53:38;5.38;;;2.55;;
58553;SDS011;48119;53.218;6.576;2022-09-09T04:56:06;3.33;;;2.13;;
58553;SDS011;48119;53.218;6.576;2022-09-09T04:58:37;5.88;;;2.25;;
58553;SDS011;48119;53.218;6.576;2022-09-09T05:03:30;4.63;;;2.40;;
58553;SDS011;48119;53.218;6.576;2022-09-09T05:06:05;3.20;;;2.30;;
58553;SDS011;48119;53.218;6.576;2022-09-09T05:08:33;4.57;;;2.47;;
58553;SDS011;48119;53.218;6.576;2022-09-09T05:11:00;5.30;;;2.60;;
58553;SDS011;48119;53.218;6.576;2022-09-09T05:13:26;5.43;;;2.60;;
58553;SDS011;48119;53.218;6.576;2022-09-09T05:15:53;5.93;;;3.25;;
58553;SDS011;48119;53.218;6.576;2022-09-09T05:18:19;4.32;;;2.50;;
58553;SDS011;48119;53.218;6.576;2022-09-09T05:20:45;5.85;;;3.35;;
58553;SDS011;48119;53.218;6.576;2022-09-09T05:23:11;4.57;;;3.10;;
58553;SDS011;48119;53.218;6.576;2022-09-09T05:25:38;6.90;;;3.35;;
58553;SDS011;48119;53.218;6.576;2022-09-09T05:28:05;6.78;;;4.00;;
58553;SDS011;48119;53.218;6.576;2022-09-09T05:30:32;6.00;;;3.38;;
58553;SDS011;48119;53.218;6.576;2022-09-09T05:32:59;6.20;;;4.32;;
58553;SDS011;48119;53.218;6.576;2022-09-09T05:35:25;7.55;;;4.15;;
58553;SDS011;48119;53.218;6.576;2022-09-09T05:37:52;6.07;;;3.55;;
58553;SDS011;48119;53.218;6.576;2022-09-09T05:40:17;9.57;;;4.78;;
58553;SDS011;48119;53.218;6.576;2022-09-09T05:42:43;5.50;;;3.42;;
58553;SDS011;48119;53.218;6.576;2022-09-09T05:45:09;6.63;;;3.58;;
58553;SDS011;48119;53.218;6.576;2022-09-09T05:47:35;8.23;;;4.00;;
58553;SDS011;48119;53.218;6.576;2022-09-09T05:50:02;6.03;;;4.15;;
58553;SDS011;48119;53.218;6.576;2022-09-09T05:52:28;6.38;;;4.70;;
58553;SDS011;48119;53.218;6.576;2022-09-09T05:54:54;6.22;;;4.00;;
58553;SDS011;48119;53.218;6.576;2022-09-09T05:57:22;9.65;;;5.57;;
58553;SDS011;48119;53.218;6.576;2022-09-09T05:59:48;7.22;;;4.57;;
58553;SDS011;48119;53.218;6.576;2022-09-09T06:02:14;6.55;;;5.10;;
58553;SDS011;48119;53.218;6.576;2022-09-09T06:04:40;8.32;;;5.28;;
58553;SDS011;48119;53.218;6.576;2022-09-09T06:07:06;8.68;;;4.53;;
58553;SDS011;48119;53.218;6.576;2022-09-09T06:09:32;5.22;;;4.50;;
58553;SDS011;48119;53.218;6.576;2022-09-09T06:11:58;6.57;;;4.68;;
58553;SDS011;48119;53.218;6.576;2022-09-09T06:14:24;5.43;;;4.80;;
58553;SDS011;48119;53.218;6.576;2022-09-09T06:16:50;8.65;;;5.20;;
58553;SDS011;48119;53.218;6.576;2022-09-09T06:19:16;9.20;;;4.63;;
58553;SDS011;48119;53.218;6.576;2022-09-09T06:21:42;6.95;;;4.78;;
58553;SDS011;48119;53.218;6.576;2022-09-09T06:24:09;7.60;;;4.72;;
58553;SDS011;48119;53.218;6.576;2022-09-09T06:26:39;8.85;;;4.78;;
58553;SDS011;48119;53.218;6.576;2022-09-09T06:29:07;8.65;;;5.20;;
58553;SDS011;48119;53.218;6.576;2022-09-09T06:31:34;9.15;;;5.20;;
58553;SDS011;48119;53.218;6.576;2022-09-09T06:34:03;6.55;;;4.40;;
58553;SDS011;48119;53.218;6.576;2022-09-09T06:36:31;7.07;;;4.53;;
58553;SDS011;48119;53.218;6.576;2022-09-09T06:38:58;6.95;;;4.40;;
58553;SDS011;48119;53.218;6.576;2022-09-09T06:41:25;8.15;;;4.85;;
58553;SDS011;48119;53.218;6.576;2022-09-09T06:43:52;6.78;;;4.47;;
58553;SDS011;48119;53.218;6.576;2022-09-09T06:46:19;8.20;;;4.43;;
58553;SDS011;48119;53.218;6.576;2022-09-09T06:48:53;6.10;;;4.32;;
58553;SDS011;48119;53.218;6.576;2022-09-09T06:51:23;8.55;;;4.30;;
58553;SDS011;48119;53.218;6.576;2022-09-09T06:53:51;5.97;;;4.13;;
58553;SDS011;48119;53.218;6.576;2022-09-09T06:56:54;7.15;;;4.50;;
58553;SDS011;48119;53.218;6.576;2022-09-09T06:59:15;5.85;;;4.03;;
58553;SDS011;48119;53.218;6.576;2022-09-09T07:01:41;7.00;;;4.72;;
58553;SDS011;48119;53.218;6.576;2022-09-09T07:04:12;10.95;;;4.55;;
58553;SDS011;48119;53.218;6.576;2022-09-09T07:06:42;6.32;;;4.00;;
58553;SDS011;48119;53.218;6.576;2022-09-09T07:09:10;5.57;;;4.47;;
58553;SDS011;48119;53.218;6.576;2022-09-09T07:11:39;6.63;;;4.10;;
58553;SDS011;48119;53.218;6.576;2022-09-09T07:14:09;6.35;;;4.45;;
58553;SDS011;48119;53.218;6.576;2022-09-09T07:16:39;6.53;;;4.68;;
58553;SDS011;48119;53.218;6.576;2022-09-09T07:19:06;8.93;;;4.32;;
58553;SDS011;48119;53.218;6.576;2022-09-09T07:21:32;6.70;;;4.25;;
58553;SDS011;48119;53.218;6.576;2022-09-09T07:23:58;5.50;;;4.43;;
58553;SDS011;48119;53.218;6.576;2022-09-09T07:26:28;6.05;;;4.25;;
58553;SDS011;48119;53.218;6.576;2022-09-09T07:28:55;5.13;;;3.70;;
58553;SDS011;48119;53.218;6.576;2022-09-09T07:31:23;5.85;;;3.65;;
58553;SDS011;48119;53.218;6.576;2022-09-09T07:33:55;6.35;;;4.65;;
58553;SDS011;48119;53.218;6.576;2022-09-09T07:36:23;11.40;;;4.72;;
58553;SDS011;48119;53.218;6.576;2022-09-09T07:38:57;4.70;;;3.55;;
58553;SDS011;48119;53.218;6.576;2022-09-09T07:41:29;6.68;;;3.85;;
58553;SDS011;48119;53.218;6.576;2022-09-09T07:43:59;8.90;;;4.30;;
58553;SDS011;48119;53.218;6.576;2022-09-09T07:46:30;6.80;;;4.13;;
58553;SDS011;48119;53.218;6.576;2022-09-09T07:48:57;9.60;;;4.13;;
58553;SDS011;48119;53.218;6.576;2022-09-09T07:51:30;6.25;;;4.03;;
58553;SDS011;48119;53.218;6.576;2022-09-09T07:54:01;6.35;;;3.78;;
58553;SDS011;48119;53.218;6.576;2022-09-09T07:56:29;6.15;;;4.43;;
58553;SDS011;48119;53.218;6.576;2022-09-09T07:58:56;7.07;;;4.10;;
58553;SDS011;48119;53.218;6.576;2022-09-09T08:01:28;6.97;;;4.00;;
58553;SDS011;48119;53.218;6.576;2022-09-09T08:04:21;5.22;;;3.83;;
58553;SDS011;48119;53.218;6.576;2022-09-09T08:06:49;5.32;;;3.65;;
58553;SDS011;48119;53.218;6.576;2022-09-09T08:09:18;10.18;;;4.70;;
58553;SDS011;48119;53.218;6.576;2022-09-09T08:11:48;10.95;;;4.32;;
58553;SDS011;48119;53.218;6.576;2022-09-09T08:14:14;5.32;;;3.72;;
58553;SDS011;48119;53.218;6.576;2022-09-09T08:16:41;5.72;;;4.15;;
58553;SDS011;48119;53.218;6.576;2022-09-09T08:19:10;7.28;;;3.88;;
58553;SDS011;48119;53.218;6.576;2022-09-09T08:21:37;6.40;;;3.35;;
58553;SDS011;48119;53.218;6.576;2022-09-09T08:24:06;5.75;;;3.50;;
58553;SDS011;48119;53.218;6.576;2022-09-09T08:26:35;8.48;;;4.00;;
58553;SDS011;48119;53.218;6.576;2022-09-09T08:29:03;6.13;;;3.40;;
58553;SDS011;48119;53.218;6.576;2022-09-09T08:31:32;7.13;;;3.17;;
58553;SDS011;48119;53.218;6.576;2022-09-09T08:34:02;4.75;;;3.75;;
58553;SDS011;48119;53.218;6.576;2022-09-09T08:36:29;5.53;;;3.78;;
58553;SDS011;48119;53.218;6.576;2022-09-09T08:39:02;7.28;;;3.45;;
58553;SDS011;48119;53.218;6.576;2022-09-09T08:41:31;6.45;;;3.83;;
58553;SDS011;48119;53.218;6.576;2022-09-09T08:44:14;6.05;;;2.72;;
58553;SDS011;48119;53.218;6.576;2022-09-09T08:52:29;7.63;;;3.38;;
58553;SDS011;48119;53.218;6.576;2022-09-09T08:58:08;6.13;;;3.17;;
58553;SDS011;48119;53.218;6.576;2022-09-09T09:01:02;7.30;;;2.92;;
58553;SDS011;48119;53.218;6.576;2022-09-09T09:11:34;5.63;;;2.75;;
58553;SDS011;48119;53.218;6.576;2022-09-09T09:17:01;8.95;;;3.85;;
58553;SDS011;48119;53.218;6.576;2022-09-09T09:19:28;6.25;;;3.58;;
58553;SDS011;48119;53.218;6.576;2022-09-09T09:22:10;5.18;;;3.25;;
58553;SDS011;48119;53.218;6.576;2022-09-09T09:27:15;6.07;;;3.15;;
58553;SDS011;48119;53.218;6.576;2022-09-09T09:29:44;6.80;;;3.85;;
58553;SDS011;48119;53.218;6.576;2022-09-09T09:32:14;6.15;;;2.90;;
58553;SDS011;48119;53.218;6.576;2022-09-09T09:34:48;7.20;;;3.97;;
58553;SDS011;48119;53.218;6.576;2022-09-09T09:37:23;8.13;;;3.72;;
58553;SDS011;48119;53.218;6.576;2022-09-09T09:39:56;9.50;;;3.70;;
58553;SDS011;48119;53.218;6.576;2022-09-09T09:42:34;4.95;;;3.13;;
58553;SDS011;48119;53.218;6.576;2022-09-09T09:45:16;7.45;;;3.30;;
58553;SDS011;48119;53.218;6.576;2022-09-09T09:48:08;8.18;;;3.38;;
58553;SDS011;48119;53.218;6.576;2022-09-09T09:50:39;7.80;;;2.92;;
58553;SDS011;48119;53.218;6.576;2022-09-09T09:53:18;4.72;;;3.13;;
58553;SDS011;48119;53.218;6.576;2022-09-09T09:56:25;7.15;;;2.67;;
58553;SDS011;48119;53.218;6.576;2022-09-09T10:01:24;8.15;;;3.20;;
58553;SDS011;48119;53.218;6.576;2022-09-09T10:03:58;7.47;;;3.33;;
58553;SDS011;48119;53.218;6.576;2022-09-09T10:06:30;11.07;;;3.10;;
58553;SDS011;48119;53.218;6.576;2022-09-09T10:08:56;11.50;;;3.45;;
58553;SDS011;48119;53.218;6.576;2022-09-09T10:11:25;6.47;;;3.05;;
58553;SDS011;48119;53.218;6.576;2022-09-09T10:22:45;6.93;;;2.30;;
58553;SDS011;48119;53.218;6.576;2022-09-09T10:25:26;9.75;;;2.53;;
58553;SDS011;48119;53.218;6.576;2022-09-09T10:38:42;8.70;;;2.55;;
58553;SDS011;48119;53.218;6.576;2022-09-09T10:52:15;8.40;;;2.58;;
58553;SDS011;48119;53.218;6.576;2022-09-09T10:57:42;6.45;;;2.03;;
58553;SDS011;48119;53.218;6.576;2022-09-09T11:03:02;9.43;;;2.15;;
58553;SDS011;48119;53.218;6.576;2022-09-09T11:08:12;11.82;;;2.60;;
58553;SDS011;48119;53.218;6.576;2022-09-09T11:10:58;7.05;;;2.72;;
58553;SDS011;48119;53.218;6.576;2022-09-09T11:14:14;6.70;;;2.00;;
58553;SDS011;48119;53.218;6.576;2022-09-09T11:16:31;5.30;;;2.17;;
58553;SDS011;48119;53.218;6.576;2022-09-09T11:21:57;6.35;;;1.90;;
58553;SDS011;48119;53.218;6.576;2022-09-09T11:27:26;7.03;;;1.83;;
58553;SDS011;48119;53.218;6.576;2022-09-09T11:38:09;2.35;;;1.10;;
58553;SDS011;48119;53.218;6.576;2022-09-09T11:40:40;6.75;;;1.90;;
58553;SDS011;48119;53.218;6.576;2022-09-09T11:43:10;3.50;;;1.60;;
58553;SDS011;48119;53.218;6.576;2022-09-09T11:45:39;7.18;;;1.73;;
58553;SDS011;48119;53.218;6.576;2022-09-09T11:48:22;6.22;;;1.73;;
58553;SDS011;48119;53.218;6.576;2022-09-09T11:51:02;4.45;;;2.00;;
58553;SDS011;48119;53.218;6.576;2022-09-09T11:54:00;3.67;;;1.40;;
58553;SDS011;48119;53.218;6.576;2022-09-09T11:56:31;3.50;;;1.77;;
58553;SDS011;48119;53.218;6.576;2022-09-09T11:59:20;5.90;;;1.83;;
58553;SDS011;48119;53.218;6.576;2022-09-09T12:02:08;5.60;;;1.92;;
58553;SDS011;48119;53.218;6.576;2022-09-09T12:07:55;5.32;;;1.65;;
58553;SDS011;48119;53.218;6.576;2022-09-09T12:10:30;5.35;;;1.58;;
58553;SDS011;48119;53.218;6.576;2022-09-09T12:15:54;7.18;;;1.98;;
58553;SDS011;48119;53.218;6.576;2022-09-09T12:18:32;4.88;;;1.95;;
58553;SDS011;48119;53.218;6.576;2022-09-09T12:21:16;7.63;;;1.55;;
58553;SDS011;48119;53.218;6.576;2022-09-09T12:24:02;2.88;;;1.17;;
58553;SDS011;48119;53.218;6.576;2022-09-09T12:29:21;8.02;;;1.92;;
58553;SDS011;48119;53.218;6.576;2022-09-09T12:40:03;3.65;;;1.27;;
58553;SDS011;48119;53.218;6.576;2022-09-09T12:42:49;5.60;;;1.60;;
58553;SDS011;48119;53.218;6.576;2022-09-09T12:45:16;8.05;;;2.70;;
58553;SDS011;48119;53.218;6.576;2022-09-09T12:47:45;3.00;;;1.30;;
58553;SDS011;48119;53.218;6.576;2022-09-09T12:50:19;4.93;;;1.30;;
58553;SDS011;48119;53.218;6.576;2022-09-09T12:52:47;4.70;;;1.40;;
58553;SDS011;48119;53.218;6.576;2022-09-09T12:55:20;5.80;;;1.88;;
58553;SDS011;48119;53.218;6.576;2022-09-09T12:57:50;5.07;;;1.55;;
58553;SDS011;48119;53.218;6.576;2022-09-09T13:00:20;8.15;;;1.67;;
58553;SDS011;48119;53.218;6.576;2022-09-09T13:02:54;5.85;;;1.80;;
58553;SDS011;48119;53.218;6.576;2022-09-09T13:05:26;6.30;;;2.17;;
58553;SDS011;48119;53.218;6.576;2022-09-09T13:08:02;4.78;;;1.90;;
58553;SDS011;48119;53.218;6.576;2022-09-09T13:10:31;8.40;;;1.92;;
58553;SDS011;48119;53.218;6.576;2022-09-09T13:13:00;4.63;;;1.90;;
58553;SDS011;48119;53.218;6.576;2022-09-09T13:15:27;6.07;;;1.70;;
58553;SDS011;48119;53.218;6.576;2022-09-09T13:17:58;11.15;;;2.15;;
58553;SDS011;48119;53.218;6.576;2022-09-09T13:20:27;5.22;;;2.00;;
58553;SDS011;48119;53.218;6.576;2022-09-09T13:22:53;4.25;;;2.08;;
58553;SDS011;48119;53.218;6.576;2022-09-09T13:35:31;6.07;;;2.40;;
58553;SDS011;48119;53.218;6.576;2022-09-09T13:37:58;5.35;;;2.13;;
58553;SDS011;48119;53.218;6.576;2022-09-09T13:40:31;4.63;;;1.80;;
58553;SDS011;48119;53.218;6.576;2022-09-09T13:42:57;4.95;;;1.83;;
58553;SDS011;48119;53.218;6.576;2022-09-09T13:45:24;6.80;;;2.22;;
58553;SDS011;48119;53.218;6.576;2022-09-09T13:47:52;3.25;;;1.80;;
58553;SDS011;48119;53.218;6.576;2022-09-09T13:50:21;7.53;;;1.83;;
58553;SDS011;48119;53.218;6.576;2022-09-09T13:52:54;3.88;;;1.50;;
58553;SDS011;48119;53.218;6.576;2022-09-09T13:55:24;4.57;;;2.40;;
58553;SDS011;48119;53.218;6.576;2022-09-09T13:57:59;5.60;;;2.17;;
58553;SDS011;48119;53.218;6.576;2022-09-09T14:00:26;6.35;;;2.13;;
58553;SDS011;48119;53.218;6.576;2022-09-09T14:02:55;2.80;;;1.35;;
58553;SDS011;48119;53.218;6.576;2022-09-09T14:05:21;3.60;;;1.23;;
58553;SDS011;48119;53.218;6.576;2022-09-09T14:07:47;5.25;;;1.40;;
58553;SDS011;48119;53.218;6.576;2022-09-09T14:10:14;4.25;;;1.40;;
58553;SDS011;48119;53.218;6.576;2022-09-09T14:12:40;3.80;;;1.60;;
58553;SDS011;48119;53.218;6.576;2022-09-09T14:15:07;6.30;;;1.45;;
58553;SDS011;48119;53.218;6.576;2022-09-09T14:17:35;3.15;;;1.38;;
58553;SDS011;48119;53.218;6.576;2022-09-09T14:20:02;5.35;;;1.50;;
58553;SDS011;48119;53.218;6.576;2022-09-09T14:22:30;4.30;;;0.77;;
58553;SDS011;48119;53.218;6.576;2022-09-09T14:24:56;2.97;;;0.85;;
58553;SDS011;48119;53.218;6.576;2022-09-09T14:27:22;8.40;;;1.40;;
58553;SDS011;48119;53.218;6.576;2022-09-09T14:29:51;3.30;;;1.00;;
58553;SDS011;48119;53.218;6.576;2022-09-09T14:32:17;2.78;;;1.35;;
58553;SDS011;48119;53.218;6.576;2022-09-09T14:34:44;2.28;;;1.40;;
58553;SDS011;48119;53.218;6.576;2022-09-09T14:37:10;3.28;;;1.33;;
58553;SDS011;48119;53.218;6.576;2022-09-09T14:39:36;2.80;;;1.55;;
58553;SDS011;48119;53.218;6.576;2022-09-09T14:42:01;6.00;;;1.85;;
58553;SDS011;48119;53.218;6.576;2022-09-09T14:44:27;6.50;;;2.50;;
58553;SDS011;48119;53.218;6.576;2022-09-09T14:46:53;3.58;;;1.35;;
58553;SDS011;48119;53.218;6.576;2022-09-09T14:49:19;4.88;;;2.40;;
58553;SDS011;48119;53.218;6.576;2022-09-09T14:51:45;2.60;;;1.45;;
58553;SDS011;48119;53.218;6.576;2022-09-09T14:54:11;3.15;;;1.73;;
58553;SDS011;48119;53.218;6.576;2022-09-09T14:56:37;5.82;;;2.65;;
58553;SDS011;48119;53.218;6.576;2022-09-09T14:59:03;5.10;;;2.45;;
58553;SDS011;48119;53.218;6.576;2022-09-09T15:01:29;4.57;;;2.20;;
58553;SDS011;48119;53.218;6.576;2022-09-09T15:04:00;4.53;;;1.33;;
58553;SDS011;48119;53.218;6.576;2022-09-09T15:06:28;6.15;;;1.92;;
58553;SDS011;48119;53.218;6.576;2022-09-09T15:08:55;6.72;;;1.52;;
58553;SDS011;48119;53.218;6.576;2022-09-09T15:11:28;4.57;;;1.73;;
58553;SDS011;48119;53.218;6.576;2022-09-09T15:13:55;3.67;;;1.80;;
58553;SDS011;48119;53.218;6.576;2022-09-09T15:16:23;8.60;;;2.20;;
58553;SDS011;48119;53.218;6.576;2022-09-09T15:18:51;5.20;;;1.83;;
58553;SDS011;48119;53.218;6.576;2022-09-09T15:21:19;5.50;;;2.28;;
58553;SDS011;48119;53.218;6.576;2022-09-09T15:23:48;10.82;;;4.68;;
58553;SDS011;48119;53.218;6.576;2022-09-09T15:26:14;5.25;;;2.47;;
58553;SDS011;48119;53.218;6.576;2022-09-09T15:28:41;7.15;;;2.60;;
58553;SDS011;48119;53.218;6.576;2022-09-09T15:31:12;5.22;;;1.98;;
58553;SDS011;48119;53.218;6.576;2022-09-09T15:33:40;5.35;;;2.47;;
58553;SDS011;48119;53.218;6.576;2022-09-09T15:36:16;5.35;;;2.30;;
58553;SDS011;48119;53.218;6.576;2022-09-09T15:38:50;7.43;;;2.50;;
58553;SDS011;48119;53.218;6.576;2022-09-09T15:41:20;5.68;;;1.38;;
58553;SDS011;48119;53.218;6.576;2022-09-09T15:43:48;4.15;;;2.40;;
58553;SDS011;48119;53.218;6.576;2022-09-09T15:49:13;4.60;;;1.52;;
58553;SDS011;48119;53.218;6.576;2022-09-09T15:51:41;6.88;;;1.83;;
58553;SDS011;48119;53.218;6.576;2022-09-09T15:54:10;3.55;;;1.45;;
58553;SDS011;48119;53.218;6.576;2022-09-09T15:56:37;7.57;;;2.40;;
58553;SDS011;48119;53.218;6.576;2022-09-09T15:59:03;3.92;;;1.67;;
58553;SDS011;48119;53.218;6.576;2022-09-09T16:01:29;6.65;;;1.95;;
58553;SDS011;48119;53.218;6.576;2022-09-09T16:03:57;3.88;;;1.80;;
58553;SDS011;48119;53.218;6.576;2022-09-09T16:06:25;8.10;;;2.42;;
58553;SDS011;48119;53.218;6.576;2022-09-09T16:08:53;3.85;;;1.88;;
58553;SDS011;48119;53.218;6.576;2022-09-09T16:11:21;3.50;;;1.65;;
58553;SDS011;48119;53.218;6.576;2022-09-09T16:13:52;2.55;;;1.50;;
58553;SDS011;48119;53.218;6.576;2022-09-09T16:16:23;2.72;;;1.65;;
58553;SDS011;48119;53.218;6.576;2022-09-09T16:18:52;5.18;;;1.70;;
58553;SDS011;48119;53.218;6.576;2022-09-09T16:21:23;3.53;;;1.70;;
58553;SDS011;48119;53.218;6.576;2022-09-09T16:23:54;3.30;;;1.50;;
58553;SDS011;48119;53.218;6.576;2022-09-09T16:26:21;1.98;;;1.08;;
58553;SDS011;48119;53.218;6.576;2022-09-09T16:28:48;4.38;;;1.58;;
58553;SDS011;48119;53.218;6.576;2022-09-09T16:31:15;3.55;;;1.38;;
58553;SDS011;48119;53.218;6.576;2022-09-09T16:33:43;6.18;;;1.80;;
58553;SDS011;48119;53.218;6.576;2022-09-09T16:36:10;4.60;;;2.35;;
58553;SDS011;48119;53.218;6.576;2022-09-09T16:38:38;4.68;;;1.90;;
58553;SDS011;48119;53.218;6.576;2022-09-09T16:41:06;4.95;;;1.88;;
58553;SDS011;48119;53.218;6.576;2022-09-09T16:43:34;4.97;;;1.60;;
58553;SDS011;48119;53.218;6.576;2022-09-09T16:46:10;3.70;;;1.38;;
58553;SDS011;48119;53.218;6.576;2022-09-09T16:48:42;3.40;;;2.03;;
58553;SDS011;48119;53.218;6.576;2022-09-09T16:51:12;9.13;;;2.30;;
58553;SDS011;48119;53.218;6.576;2022-09-09T16:54:07;3.53;;;1.30;;
58553;SDS011;48119;53.218;6.576;2022-09-09T16:56:36;3.20;;;1.67;;
58553;SDS011;48119;53.218;6.576;2022-09-09T16:59:07;4.57;;;1.73;;
58553;SDS011;48119;53.218;6.576;2022-09-09T17:01:36;3.95;;;1.80;;
58553;SDS011;48119;53.218;6.576;2022-09-09T17:04:06;3.63;;;1.33;;
58553;SDS011;48119;53.218;6.576;2022-09-09T17:06:34;1.70;;;1.35;;
58553;SDS011;48119;53.218;6.576;2022-09-09T17:09:08;3.22;;;1.40;;
58553;SDS011;48119;53.218;6.576;2022-09-09T17:11:36;5.75;;;1.92;;
58553;SDS011;48119;53.218;6.576;2022-09-09T17:14:05;7.45;;;2.22;;
58553;SDS011;48119;53.218;6.576;2022-09-09T17:16:33;5.30;;;1.65;;
58553;SDS011;48119;53.218;6.576;2022-09-09T17:18:59;5.63;;;1.88;;
58553;SDS011;48119;53.218;6.576;2022-09-09T17:21:29;4.60;;;1.80;;
58553;SDS011;48119;53.218;6.576;2022-09-09T17:23:56;4.03;;;2.22;;
58553;SDS011;48119;53.218;6.576;2022-09-09T17:26:27;2.97;;;1.80;;
58553;SDS011;48119;53.218;6.576;2022-09-09T17:28:58;2.83;;;1.48;;
58553;SDS011;48119;53.218;6.576;2022-09-09T17:31:25;7.35;;;2.60;;
58553;SDS011;48119;53.218;6.576;2022-09-09T17:33:54;3.85;;;1.60;;
58553;SDS011;48119;53.218;6.576;2022-09-09T17:36:30;5.82;;;2.40;;